Time;durP1;ratioP1;P1;durP2;ratioP2;P2;SDS_P1;SDS_P2;PMS_P1;PMS_P2;Temp;Humidity;BMP_temperature;BMP_pressure;BME280_temperature;BME280_humidity;BME280_pressure;Samples;Min_cycle;Max_cycle;Signal;HPM_P1;HPM_P2
2023/03/25 00:00:21;;;;;;;;;;;;;;;8.01;91.07;100087.88;5049443;28;1234;-75
2023/03/25 00:02:48;;;;;;;;;;;;;;;8.03;91.49;100089.41;5052674;28;1568;-75
2023/03/25 00:05:14;;;;;;;;;;;;;;;8.04;91.07;100087.66;5053912;28;1890;-75
2023/03/25 00:07:40;;;;;;;;;;;;;;;8.06;91.21;100094.31;5057790;28;1453;-75
2023/03/25 00:10:05;;;;;;;;;;;;;;;8.02;91.00;100090.34;5059420;28;1392;-75
2023/03/25 00:12:31;;;;;;;;;;;;;;;8.04;91.61;100092.81;5050147;28;1405;-75
2023/03/25 00:14:57;;;;;;;;;;;;;;;8.08;91.23;100099.34;5054627;28;5042;-75
2023/03/25 00:17:22;;;;;;;;;;;;;;;8.02;91.22;100094.69;5052089;28;1647;-75
2023/03/25 00:19:50;;;;;;;;;;;;;;;8.01;91.60;100103.38;5053379;28;1873;-75
2023/03/25 00:22:19;;;;;;;;;;;;;;;7.98;91.20;100094.94;5059768;28;1600;-75
2023/03/25 00:24:45;;;;;;;;;;;;;;;8.08;91.32;100104.50;5053830;28;1961;-75
2023/03/25 00:27:10;;;;;;;;;;;;;;;8.04;90.86;100092.81;5050011;28;1505;-75
2023/03/25 00:29:35;;;;;;;;;;;;;;;8.04;91.39;100091.03;5057265;28;1022;-74
2023/03/25 00:32:00;;;;;;;;;;;;;;;7.98;91.36;100102.69;5051141;28;1149;-75
2023/03/25 00:34:25;;;;;;;;;;;;;;;8.04;91.46;100092.81;5056808;28;1180;-76
2023/03/25 00:36:51;;;;;;;;;;;;;;;8.01;91.26;100093.06;5053739;28;1412;-76
2023/03/25 00:39:16;;;;;;;;;;;;;;;8.20;90.47;100091.41;5053011;28;1145;-75
2023/03/25 00:41:42;;;;;;;;;;;;;;;8.10;90.72;100092.31;5056613;28;1220;-74
2023/03/25 00:44:11;;;;;;;;;;;;;;;8.14;90.72;100083.34;5057937;28;1894;-74
2023/03/25 00:46:36;;;;;;;;;;;;;;;8.06;90.46;100090.91;5058361;28;1206;-74
2023/03/25 00:49:01;;;;;;;;;;;;;;;8.06;90.28;100090.91;5053127;28;966;-74
2023/03/25 00:51:29;;;;;;;;;;;;;;;8.04;90.79;100095.41;5048376;28;2404;-74
2023/03/25 00:53:59;;;;;;;;;;;;;;;8.01;91.04;100077.56;5056725;28;1473;-74
2023/03/25 00:56:24;;;;;;;;;;;;;;;8.03;90.27;100085.97;5055470;28;1433;-74
2023/03/25 00:58:49;;;;;;;;;;;;;;;8.02;90.30;100080.00;5048281;28;1292;-74
2023/03/25 01:01:16;;;;;;;;;;;;;;;8.04;90.05;100082.47;5055571;28;1328;-74
2023/03/25 01:03:42;;;;;;;;;;;;;;;8.01;90.08;100087.88;5059307;28;2160;-74
2023/03/25 01:06:12;;;;;;;;;;;;;;;7.99;90.19;100075.94;5059204;28;1886;-75
2023/03/25 01:08:38;;;;;;;;;;;;;;;8.00;90.33;100069.00;5055515;28;1384;-74
2023/03/25 01:11:03;;;;;;;;;;;;;;;8.09;89.43;100070.81;5057204;28;1776;-74
2023/03/25 01:13:29;;;;;;;;;;;;;;;8.01;89.50;100077.56;5060775;28;1488;-75
2023/03/25 01:15:54;;;;;;;;;;;;;;;8.04;89.16;100085.06;5051735;28;5321;-75
2023/03/25 01:18:19;;;;;;;;;;;;;;;8.02;88.49;100080.00;5058320;28;1338;-75
2023/03/25 01:20:45;;;;;;;;;;;;;;;8.08;88.31;100083.84;5064226;28;1589;-74
2023/03/25 01:23:10;;;;;;;;;;;;;;;8.04;88.33;100082.47;5055766;28;1534;-75
2023/03/25 01:25:36;;;;;;;;;;;;;;;7.95;88.65;100084.84;5058613;28;2017;-74
2023/03/25 01:28:01;;;;;;;;;;;;;;;7.93;88.65;100081.59;5050475;28;1407;-75
2023/03/25 01:30:27;;;;;;;;;;;;;;;7.98;88.84;100094.13;5060019;28;1458;-74
2023/03/25 01:32:52;;;;;;;;;;;;;;;7.95;88.74;100089.22;5053110;28;1587;-74
2023/03/25 01:35:17;;;;;;;;;;;;;;;7.95;88.20;100082.28;5055927;28;1637;-74
2023/03/25 01:37:43;;;;;;;;;;;;;;;7.94;87.86;100080.66;5057739;28;1322;-74
2023/03/25 01:40:09;;;;;;;;;;;;;;;8.03;87.67;100085.97;5062904;28;2007;-74
2023/03/25 01:42:35;;;;;;;;;;;;;;;8.01;88.08;100077.56;5061006;28;1571;-75
2023/03/25 01:45:11;;;;;;;;;;;;;;;7.96;88.24;100086.50;5052390;28;1906;-74
2023/03/25 01:47:37;;;;;;;;;;;;;;;7.93;87.75;100073.03;5058084;28;2291;-74
2023/03/25 01:50:02;;;;;;;;;;;;;;;7.95;87.71;100068.56;5049801;28;2400;-74
2023/03/25 01:52:29;;;;;;;;;;;;;;;7.94;87.48;100078.06;5060376;28;1408;-74
2023/03/25 01:54:56;;;;;;;;;;;;;;;8.01;87.52;100072.38;5049540;28;1667;-74
2023/03/25 01:57:22;;;;;;;;;;;;;;;7.87;88.44;100071.78;5057906;28;1519;-74
2023/03/25 01:59:48;;;;;;;;;;;;;;;7.92;88.41;100064.47;5059892;28;1659;-74
2023/03/25 02:02:16;;;;;;;;;;;;;;;7.91;88.74;100070.59;5053938;28;1229;-74
2023/03/25 02:04:50;;;;;;;;;;;;;;;7.93;88.29;100070.44;5058634;28;1890;-74
2023/03/25 02:07:17;;;;;;;;;;;;;;;7.86;89.15;100070.16;5055449;28;1364;-74
2023/03/25 02:09:43;;;;;;;;;;;;;;;7.83;88.80;100072.16;5057055;28;1623;-74
2023/03/25 02:12:08;;;;;;;;;;;;;;;7.91;88.80;100073.16;5060817;28;1309;-74
2023/03/25 02:14:34;;;;;;;;;;;;;;;7.83;89.84;100070.38;5055980;28;5110;-74
2023/03/25 02:17:06;;;;;;;;;;;;;;;7.75;90.20;100062.47;5059171;28;1299;-73
2023/03/25 02:19:50;;;;;;;;;;;;;;;7.77;90.23;100070.88;5055965;28;1398;-74
2023/03/25 02:22:36;;;;;;;;;;;;;;;7.72;90.32;100060.13;5053355;28;1426;-74
2023/03/25 02:25:20;;;;;;;;;;;;;;;7.68;91.09;100059.56;5053894;28;1970;-75
2023/03/25 02:27:51;;;;;;;;;;;;;;;7.66;91.28;100063.19;5058277;28;1390;-74
2023/03/25 02:30:28;;;;;;;;;;;;;;;7.69;91.74;100057.81;5056383;28;1526;-74
2023/03/25 02:32:54;;;;;;;;;;;;;;;7.59;92.11;100055.16;5055783;28;1425;-74
2023/03/25 02:35:38;;;;;;;;;;;;;;;7.55;91.83;100066.66;5055458;28;1629;-74
2023/03/25 02:38:10;;;;;;;;;;;;;;;7.56;92.43;100062.31;5071591;28;1602;-74
2023/03/25 02:40:47;;;;;;;;;;;;;;;7.62;92.41;100056.66;5052826;28;1343;-74
2023/03/25 02:43:27;;;;;;;;;;;;;;;7.56;92.21;100062.31;5060517;28;1346;-74
2023/03/25 02:45:55;;;;;;;;;;;;;;;7.62;92.60;100056.66;5055855;28;2423;-74
2023/03/25 02:48:24;;;;;;;;;;;;;;;7.55;93.19;100060.66;5054867;28;1449;-74
2023/03/25 02:50:51;;;;;;;;;;;;;;;7.51;92.77;100061.84;5054498;28;1780;-74
2023/03/25 02:53:24;;;;;;;;;;;;;;;7.45;93.52;100053.69;5059464;28;1470;-74
2023/03/25 02:55:51;;;;;;;;;;;;;;;7.54;93.63;100053.88;5057229;28;1256;-74
2023/03/25 02:58:18;;;;;;;;;;;;;;;7.49;93.44;100045.69;5061419;28;1570;-74
2023/03/25 03:00:43;;;;;;;;;;;;;;;7.45;93.68;100051.13;5060710;28;2388;-74
2023/03/25 03:03:09;;;;;;;;;;;;;;;7.37;93.67;100050.91;5053086;28;1298;-74
2023/03/25 03:05:40;;;;;;;;;;;;;;;7.35;94.35;100047.63;5054748;28;1963;-74
2023/03/25 03:08:23;;;;;;;;;;;;;;;7.42;94.26;100051.34;5054198;28;1403;-74
2023/03/25 03:11:01;;;;;;;;;;;;;;;7.40;94.11;100052.44;5057231;28;1394;-74
2023/03/25 03:14:05;;;;;;;;;;;;;;;7.36;94.62;100049.25;5050510;28;1688;-74
2023/03/25 03:16:42;;;;;;;;;;;;;;;7.37;94.94;100048.31;5011099;28;1444;-74
2023/03/25 03:19:20;;;;;;;;;;;;;;;7.35;95.66;100045.06;5009472;28;1553;-74
2023/03/25 03:21:45;;;;;;;;;;;;;;;7.30;95.81;100041.22;5035756;28;1523;-74
2023/03/25 03:24:28;;;;;;;;;;;;;;;7.28;95.36;100036.16;5059342;28;1957;-74
2023/03/25 03:26:58;;;;;;;;;;;;;;;7.42;94.80;100041.03;5052962;28;1322;-74
2023/03/25 03:29:35;;;;;;;;;;;;;;;7.34;95.43;100043.41;5057003;28;1523;-74
2023/03/25 03:32:06;;;;;;;;;;;;;;;7.30;95.77;100041.22;5061530;28;1618;-74
2023/03/25 03:34:41;;;;;;;;;;;;;;;7.34;95.62;100046.00;5047513;28;2458;-74
2023/03/25 03:37:08;;;;;;;;;;;;;;;7.47;95.23;100047.59;5060470;28;1515;-74
2023/03/25 03:39:35;;;;;;;;;;;;;;;7.38;95.70;100054.28;5052425;28;1320;-74
2023/03/25 03:42:03;;;;;;;;;;;;;;;7.39;95.46;100051.56;5056968;28;2328;-74
2023/03/25 03:44:30;;;;;;;;;;;;;;;7.41;95.92;100048.91;5058400;28;1975;-74
2023/03/25 03:47:04;;;;;;;;;;;;;;;7.41;95.98;100049.72;5054304;28;1307;-74
2023/03/25 03:49:37;;;;;;;;;;;;;;;7.34;95.90;100053.75;5053123;28;2161;-74
2023/03/25 03:52:07;;;;;;;;;;;;;;;7.34;96.26;100058.06;5053354;28;1403;-74
2023/03/25 03:54:38;;;;;;;;;;;;;;;7.29;96.46;100045.53;5055315;28;1295;-74
2023/03/25 03:57:06;;;;;;;;;;;;;;;7.36;96.46;100049.25;5051457;28;1514;-74
2023/03/25 03:59:41;;;;;;;;;;;;;;;7.38;96.28;100039.63;5055359;28;1306;-74
2023/03/25 04:02:41;;;;;;;;;;;;;;;7.33;97.29;100034.03;5061789;28;1268;-74
2023/03/25 04:05:10;;;;;;;;;;;;;;;7.35;97.37;100029.56;5030546;28;1906;-74
2023/03/25 04:07:40;;;;;;;;;;;;;;;7.27;96.59;100037.09;5046231;28;1767;-74
2023/03/25 04:10:13;;;;;;;;;;;;;;;7.24;96.80;100032.19;5049611;28;1575;-74
2023/03/25 04:12:42;;;;;;;;;;;;;;;7.28;97.02;100023.25;5054154;28;1435;-74
2023/03/25 04:15:08;;;;;;;;;;;;;;;7.28;97.22;100038.72;5060067;28;5065;-74
2023/03/25 04:17:33;;;;;;;;;;;;;;;7.35;96.34;100036.50;5052540;28;1317;-74
2023/03/25 04:19:58;;;;;;;;;;;;;;;7.19;97.07;100039.47;5048653;28;1594;-74
2023/03/25 04:22:24;;;;;;;;;;;;;;;7.16;96.79;100037.13;5058577;28;1311;-73
2023/03/25 04:24:50;;;;;;;;;;;;;;;7.30;96.99;100031.69;5062261;28;1893;-74
2023/03/25 04:27:16;;;;;;;;;;;;;;;7.15;97.22;100030.34;5055379;28;1243;-74
2023/03/25 04:29:42;;;;;;;;;;;;;;;7.21;96.92;100026.47;5047537;28;1631;-74
2023/03/25 04:32:09;;;;;;;;;;;;;;;7.26;97.23;100022.56;5050514;28;1352;-74
2023/03/25 04:34:34;;;;;;;;;;;;;;;7.29;97.05;100024.91;5059312;28;1700;-74
2023/03/25 04:37:00;;;;;;;;;;;;;;;7.28;97.01;100020.66;5058155;28;2200;-74
2023/03/25 04:39:28;;;;;;;;;;;;;;;7.32;96.96;100023.84;5053242;28;1451;-73
2023/03/25 04:41:55;;;;;;;;;;;;;;;7.26;96.54;100025.16;5053280;28;1294;-74
2023/03/25 04:44:22;;;;;;;;;;;;;;;7.25;96.01;100026.09;5062471;28;1914;-74
2023/03/25 04:46:47;;;;;;;;;;;;;;;7.26;96.36;100014.00;5053970;28;1312;-74
2023/03/25 04:49:20;;;;;;;;;;;;;;;7.30;96.77;100025.72;5060951;28;1445;-74
2023/03/25 04:51:46;;;;;;;;;;;;;;;7.37;95.30;100022.53;5061746;28;1429;-75
2023/03/25 04:54:11;;;;;;;;;;;;;;;7.36;94.99;100015.72;5059607;28;1637;-74
2023/03/25 04:56:38;;;;;;;;;;;;;;;7.39;94.91;100025.78;5057547;28;1220;-74
2023/03/25 04:59:03;;;;;;;;;;;;;;;7.32;95.01;100019.50;5066581;28;1519;-73
2023/03/25 05:01:29;;;;;;;;;;;;;;;7.45;94.23;100012.41;5057293;28;1306;-74
2023/03/25 05:04:04;;;;;;;;;;;;;;;7.36;95.09;100020.06;5050854;28;1687;-74
2023/03/25 05:06:31;;;;;;;;;;;;;;;7.51;93.88;100023.97;5056764;28;1898;-75
2023/03/25 05:08:57;;;;;;;;;;;;;;;7.40;94.32;100019.72;5057279;28;1465;-75
2023/03/25 05:11:22;;;;;;;;;;;;;;;7.41;93.70;100029.06;5057185;28;1380;-74
2023/03/25 05:13:47;;;;;;;;;;;;;;;7.29;94.73;100032.66;5051908;28;5018;-76
2023/03/25 05:16:12;;;;;;;;;;;;;;;7.33;94.53;100036.59;5058486;28;1470;-74
2023/03/25 05:18:37;;;;;;;;;;;;;;;7.32;94.17;100029.81;5058563;28;1629;-74
2023/03/25 05:21:04;;;;;;;;;;;;;;;7.38;93.88;100029.31;5062915;28;1484;-74
2023/03/25 05:23:30;;;;;;;;;;;;;;;7.37;94.10;100038.00;5053430;28;1427;-74
2023/03/25 05:25:55;;;;;;;;;;;;;;;7.43;94.50;100037.50;5065027;28;1901;-75
2023/03/25 05:28:20;;;;;;;;;;;;;;;7.35;95.21;100045.06;5062641;28;1447;-74
2023/03/25 05:30:46;;;;;;;;;;;;;;;7.29;95.29;100045.53;5055616;28;1628;-75
2023/03/25 05:33:14;;;;;;;;;;;;;;;7.34;95.82;100048.56;5054849;28;2381;-74
2023/03/25 05:35:39;;;;;;;;;;;;;;;7.25;96.29;100043.34;5059113;28;1400;-74
2023/03/25 05:38:07;;;;;;;;;;;;;;;7.24;96.04;100047.66;5058732;28;1457;-74
2023/03/25 05:40:32;;;;;;;;;;;;;;;7.30;96.39;100036.03;5054060;28;2506;-74
2023/03/25 05:42:57;;;;;;;;;;;;;;;7.17;96.52;100043.97;5057608;28;1628;-74
2023/03/25 05:45:23;;;;;;;;;;;;;;;7.19;96.26;100044.63;5060769;28;1953;-74
2023/03/25 05:47:48;;;;;;;;;;;;;;;7.29;96.56;100042.97;5060504;28;1417;-74
2023/03/25 05:50:14;;;;;;;;;;;;;;;7.39;95.07;100051.56;5057631;28;1409;-74
2023/03/25 05:52:40;;;;;;;;;;;;;;;7.34;95.51;100053.75;5057971;28;1427;-75
2023/03/25 05:55:06;;;;;;;;;;;;;;;7.18;95.96;100063.63;5064643;28;1324;-75
2023/03/25 05:57:31;;;;;;;;;;;;;;;7.19;95.94;100060.13;5057302;28;1620;-75
2023/03/25 05:59:56;;;;;;;;;;;;;;;7.23;96.56;100053.78;5057772;28;1362;-75
2023/03/25 06:02:22;;;;;;;;;;;;;;;7.18;96.07;100053.31;5053102;28;1525;-75
2023/03/25 06:04:49;;;;;;;;;;;;;;;7.17;96.13;100054.28;5051551;28;1943;-75
2023/03/25 06:07:21;;;;;;;;;;;;;;;7.29;96.09;100061.03;5056959;28;1599;-75
2023/03/25 06:09:47;;;;;;;;;;;;;;;7.25;95.99;100064.78;5060161;28;1546;-75
2023/03/25 06:12:18;;;;;;;;;;;;;;;7.25;95.47;100072.53;5056966;28;1304;-75
2023/03/25 06:14:44;;;;;;;;;;;;;;;7.28;95.66;100074.03;5060226;28;5079;-77
2023/03/25 06:17:10;;;;;;;;;;;;;;;7.16;95.83;100080.97;5052687;28;2491;-77
2023/03/25 06:19:37;;;;;;;;;;;;;;;7.17;95.64;100082.63;5063043;28;953;-75
2023/03/25 06:22:08;;;;;;;;;;;;;;;7.16;96.05;100081.78;5059921;28;1258;-75
2023/03/25 06:24:33;;;;;;;;;;;;;;;7.24;96.63;100068.31;5058698;28;1898;-74
2023/03/25 06:26:58;;;;;;;;;;;;;;;7.26;96.42;100071.56;5063688;28;1161;-75
2023/03/25 06:29:23;;;;;;;;;;;;;;;7.33;95.65;100080.44;5057908;28;2152;-75
2023/03/25 06:31:49;;;;;;;;;;;;;;;7.30;95.93;100083.28;5054856;28;1889;-75
2023/03/25 06:34:14;;;;;;;;;;;;;;;7.32;95.86;100068.50;5053243;28;1132;-74
2023/03/25 06:36:39;;;;;;;;;;;;;;;7.26;96.04;100081.88;5058784;28;949;-74
2023/03/25 06:39:05;;;;;;;;;;;;;;;7.32;95.39;100080.59;5054854;28;1047;-75
2023/03/25 06:41:30;;;;;;;;;;;;;;;7.34;95.46;100082.13;5055132;28;1192;-75
2023/03/25 06:43:55;;;;;;;;;;;;;;;7.29;95.66;100086.00;5056885;28;1207;-75
2023/03/25 06:46:21;;;;;;;;;;;;;;;7.38;95.08;100091.22;5053753;28;1898;-75
2023/03/25 06:48:46;;;;;;;;;;;;;;;7.39;95.26;100087.69;5058229;28;1586;-75
2023/03/25 06:51:11;;;;;;;;;;;;;;;7.59;93.78;100083.53;5054824;28;1625;-75
2023/03/25 06:53:36;;;;;;;;;;;;;;;7.55;93.75;100096.78;5060674;28;1549;-74
2023/03/25 06:56:02;;;;;;;;;;;;;;;7.54;94.02;100085.66;5053130;28;1492;-75
2023/03/25 06:58:33;;;;;;;;;;;;;;;7.55;93.92;100101.97;5051777;28;1521;-74
2023/03/25 07:01:02;;;;;;;;;;;;;;;7.61;93.31;100106.63;5052351;28;1308;-74
2023/03/25 07:03:27;;;;;;;;;;;;;;;7.66;92.09;100094.16;5050614;28;1633;-74
2023/03/25 07:05:53;;;;;;;;;;;;;;;7.59;92.70;100093.84;5055106;28;1890;-72
2023/03/25 07:08:18;;;;;;;;;;;;;;;7.62;92.12;100097.94;5059697;28;1197;-75
2023/03/25 07:10:43;;;;;;;;;;;;;;;7.70;90.76;100100.72;5049293;28;1318;-75
2023/03/25 07:13:09;;;;;;;;;;;;;;;7.69;91.72;100104.25;5053884;28;1348;-74
2023/03/25 07:15:35;;;;;;;;;;;;;;;7.61;92.01;100106.63;5051046;28;4931;-75
2023/03/25 07:18:00;;;;;;;;;;;;;;;7.59;92.80;100106.75;5060256;28;1614;-75
2023/03/25 07:20:28;;;;;;;;;;;;;;;7.57;92.68;100110.38;5053775;28;1283;-75
2023/03/25 07:22:54;;;;;;;;;;;;;;;7.60;93.42;100115.31;5058294;28;1529;-75
2023/03/25 07:25:19;;;;;;;;;;;;;;;7.60;93.32;100115.31;5056598;28;2464;-75
2023/03/25 07:27:47;;;;;;;;;;;;;;;7.55;93.55;100125.19;5051832;28;1303;-74
2023/03/25 07:30:13;;;;;;;;;;;;;;;7.47;94.54;100114.66;5054246;28;1407;-74
2023/03/25 07:32:38;;;;;;;;;;;;;;;7.38;95.00;100122.19;5056619;28;1469;-74
2023/03/25 07:35:04;;;;;;;;;;;;;;;7.40;95.15;100125.47;5062002;28;1413;-74
2023/03/25 07:37:29;;;;;;;;;;;;;;;7.34;95.94;100120.81;5058690;28;1224;-74
2023/03/25 07:39:54;;;;;;;;;;;;;;;7.29;96.04;100122.09;5050733;28;1546;-75
2023/03/25 07:42:20;;;;;;;;;;;;;;;7.38;96.46;100116.19;5060981;28;1343;-74
2023/03/25 07:44:45;;;;;;;;;;;;;;;7.36;96.26;100113.75;5056528;28;1890;-75
2023/03/25 07:47:10;;;;;;;;;;;;;;;7.37;96.43;100128.28;5051832;28;1549;-75
2023/03/25 07:49:35;;;;;;;;;;;;;;;7.34;95.93;100120.81;5054358;28;1576;-74
2023/03/25 07:52:00;;;;;;;;;;;;;;;7.33;96.04;100123.47;5057811;28;1313;-74
2023/03/25 07:54:27;;;;;;;;;;;;;;;7.36;96.55;100128.41;5057145;28;1345;-74
2023/03/25 07:56:53;;;;;;;;;;;;;;;7.37;96.12;100133.44;5051126;28;1535;-74
2023/03/25 07:59:18;;;;;;;;;;;;;;;7.37;96.31;100130.06;5049711;28;1414;-74
2023/03/25 08:01:43;;;;;;;;;;;;;;;7.54;97.17;100133.88;5053293;28;1267;-73
2023/03/25 08:04:08;;;;;;;;;;;;;;;7.41;97.09;100132.28;5049162;28;1434;-74
2023/03/25 08:06:34;;;;;;;;;;;;;;;7.52;96.81;100130.59;5054165;28;1914;-75
2023/03/25 08:08:59;;;;;;;;;;;;;;;7.48;97.25;100136.94;5049704;28;1441;-74
2023/03/25 08:11:24;;;;;;;;;;;;;;;7.50;97.58;100145.38;5049194;28;1553;-74
2023/03/25 08:13:50;;;;;;;;;;;;;;;7.53;97.67;100145.13;5050778;28;5031;-74
2023/03/25 08:16:15;;;;;;;;;;;;;;;7.53;98.20;100145.97;5049005;28;1501;-74
2023/03/25 08:18:43;;;;;;;;;;;;;;;7.56;97.58;100145.69;5052710;28;1265;-74
2023/03/25 08:21:12;;;;;;;;;;;;;;;7.57;97.95;100146.50;5052810;28;2428;-74
2023/03/25 08:23:37;;;;;;;;;;;;;;;7.57;97.81;100146.50;5049529;28;1239;-73
2023/03/25 08:26:04;;;;;;;;;;;;;;;7.57;98.16;100143.94;5062201;28;1906;-76
2023/03/25 08:28:30;;;;;;;;;;;;;;;7.62;97.48;100139.22;5057758;28;1506;-74
2023/03/25 08:30:55;;;;;;;;;;;;;;;7.60;98.18;100146.28;5057169;28;1415;-74
2023/03/25 08:33:21;;;;;;;;;;;;;;;7.73;97.91;100147.75;5049298;28;1151;-74
2023/03/25 08:35:47;;;;;;;;;;;;;;;7.82;97.73;100151.34;5056681;28;1461;-73
2023/03/25 08:38:12;;;;;;;;;;;;;;;7.89;96.93;100157.66;5058119;28;1449;-74
2023/03/25 08:40:38;;;;;;;;;;;;;;;7.86;97.08;100147.59;5058101;28;1187;-73
2023/03/25 08:43:04;;;;;;;;;;;;;;;8.01;95.76;100150.69;5057848;28;1621;-75
2023/03/25 08:45:31;;;;;;;;;;;;;;;7.91;95.57;100150.63;5047442;28;1893;-74
2023/03/25 08:47:57;;;;;;;;;;;;;;;7.90;95.68;100148.97;5056451;28;1520;-74
2023/03/25 08:50:22;;;;;;;;;;;;;;;7.95;95.92;100140.84;5054851;28;1320;-75
2023/03/25 08:52:47;;;;;;;;;;;;;;;7.99;95.75;100148.22;5056055;28;1618;-76
2023/03/25 08:55:15;;;;;;;;;;;;;;;8.19;95.68;100143.19;5047892;28;1373;-75
2023/03/25 08:57:41;;;;;;;;;;;;;;;8.25;95.67;100146.06;5056070;28;1609;-74
2023/03/25 09:00:11;;;;;;;;;;;;;;;8.41;95.36;100148.25;5051571;28;1195;-74
2023/03/25 09:02:37;;;;;;;;;;;;;;;8.42;95.37;100149.88;5056429;28;1469;-74
2023/03/25 09:05:03;;;;;;;;;;;;;;;8.68;93.33;100159.81;5058764;28;1894;-73
2023/03/25 09:07:29;;;;;;;;;;;;;;;8.58;94.27;100153.78;5054964;28;1960;-74
2023/03/25 09:09:54;;;;;;;;;;;;;;;8.61;93.88;100151.75;5052025;28;1219;-74
2023/03/25 09:12:19;;;;;;;;;;;;;;;8.54;94.57;100162.72;5053651;28;1417;-75
2023/03/25 09:14:44;;;;;;;;;;;;;;;8.54;94.88;100167.88;5050890;28;5071;-75
2023/03/25 09:17:10;;;;;;;;;;;;;;;8.59;94.21;100150.22;5051806;28;1481;-74
2023/03/25 09:19:36;;;;;;;;;;;;;;;8.50;94.54;100152.66;5050107;28;2382;-74
2023/03/25 09:22:02;;;;;;;;;;;;;;;8.58;94.42;100164.13;5059614;28;1663;-74
2023/03/25 09:24:27;;;;;;;;;;;;;;;8.46;94.56;100166.78;5049505;28;1870;-74
2023/03/25 09:26:52;;;;;;;;;;;;;;;8.42;95.14;100164.56;5056702;28;1474;-74
2023/03/25 09:29:17;;;;;;;;;;;;;;;8.42;94.83;100164.56;5052629;28;1889;-75
2023/03/25 09:31:42;;;;;;;;;;;;;;;8.43;95.60;100161.03;5058942;28;1606;-74
2023/03/25 09:34:08;;;;;;;;;;;;;;;8.31;96.10;100168.00;5057857;28;1243;-75
2023/03/25 09:36:33;;;;;;;;;;;;;;;8.24;97.27;100157.34;5058328;28;1287;-75
2023/03/25 09:38:58;;;;;;;;;;;;;;;8.16;97.52;100164.13;5056684;28;1555;-75
2023/03/25 09:41:40;;;;;;;;;;;;;;;8.19;97.73;100174.19;5056388;28;1532;-76
2023/03/25 09:44:08;;;;;;;;;;;;;;;8.05;98.60;100166.75;5057186;28;1593;-75
2023/03/25 09:46:35;;;;;;;;;;;;;;;8.05;98.59;100169.34;5054021;28;1917;-75
2023/03/25 09:49:01;;;;;;;;;;;;;;;8.08;98.94;100162.13;5053754;28;1251;-75
2023/03/25 09:51:32;;;;;;;;;;;;;;;8.07;99.46;100164.84;5066456;28;1398;-75
2023/03/25 09:54:16;;;;;;;;;;;;;;;8.27;98.59;100166.63;5052737;28;1429;-75
2023/03/25 09:56:42;;;;;;;;;;;;;;;8.50;98.52;100182.84;5052777;28;1409;-75
2023/03/25 09:59:13;;;;;;;;;;;;;;;8.58;98.64;100179.63;5059759;28;1660;-75
2023/03/25 10:01:45;;;;;;;;;;;;;;;8.68;98.48;100180.50;5061854;28;1716;-75
2023/03/25 10:04:29;;;;;;;;;;;;;;;8.68;98.57;100180.50;5053302;28;1297;-75
2023/03/25 10:07:12;;;;;;;;;;;;;;;8.94;97.71;100179.09;5060861;28;1248;-75
2023/03/25 10:09:37;;;;;;;;;;;;;;;9.03;97.86;100191.25;5060490;28;1345;-75
2023/03/25 10:12:09;;;;;;;;;;;;;;;9.13;97.47;100174.97;5062372;28;1624;-75
2023/03/25 10:14:46;;;;;;;;;;;;;;;9.17;95.70;100181.47;5060756;28;5094;-75
2023/03/25 10:17:11;;;;;;;;;;;;;;;9.16;96.24;100179.84;5063780;28;1537;-75
2023/03/25 10:19:39;;;;;;;;;;;;;;;9.20;95.26;100181.25;5052735;28;1203;-75
2023/03/25 10:22:04;;;;;;;;;;;;;;;9.15;95.75;100188.56;5051234;28;1122;-75
2023/03/25 10:24:30;;;;;;;;;;;;;;;9.07;95.98;100165.13;5050153;28;1965;-75
2023/03/25 10:27:18;;;;;;;;;;;;;;;9.05;96.03;100191.94;5060901;28;1463;-75
2023/03/25 10:29:48;;;;;;;;;;;;;;;9.12;94.94;100194.00;5053477;28;1254;-74
2023/03/25 10:32:30;;;;;;;;;;;;;;;9.04;95.71;100192.06;5055786;28;1982;-75
2023/03/25 10:34:56;;;;;;;;;;;;;;;9.20;95.61;100191.59;5063428;28;1581;-74
2023/03/25 10:37:30;;;;;;;;;;;;;;;9.18;95.64;100193.50;5059278;28;1552;-74
2023/03/25 10:39:59;;;;;;;;;;;;;;;9.28;95.88;100181.38;5056457;28;1639;-74
2023/03/25 10:42:33;;;;;;;;;;;;;;;9.41;93.94;100205.28;5056781;28;1584;-74
2023/03/25 10:44:59;;;;;;;;;;;;;;;9.64;91.89;100199.88;5050581;28;1972;-75
2023/03/25 10:47:27;;;;;;;;;;;;;;;9.48;93.17;100196.00;5054668;28;1410;-75
2023/03/25 10:49:53;;;;;;;;;;;;;;;9.60;91.28;100195.91;5052855;28;1378;-76
2023/03/25 10:52:19;;;;;;;;;;;;;;;9.55;91.39;100189.34;5057043;28;1569;-75
2023/03/25 10:54:46;;;;;;;;;;;;;;;9.57;91.33;100200.38;5060158;28;1345;-75
2023/03/25 10:57:31;;;;;;;;;;;;;;;9.53;91.01;100193.03;5054754;28;1590;-75
2023/03/25 10:59:56;;;;;;;;;;;;;;;9.52;89.72;100189.63;5054104;28;1299;-76
2023/03/25 11:02:26;;;;;;;;;;;;;;;9.53;89.12;100199.03;5061370;28;1263;-76
2023/03/25 11:04:54;;;;;;;;;;;;;;;9.50;89.35;100212.22;5057271;28;1961;-75
2023/03/25 11:07:22;;;;;;;;;;;;;;;9.47;89.05;100204.75;5058986;28;1639;-75
2023/03/25 11:09:48;;;;;;;;;;;;;;;9.43;88.95;100203.34;5055507;28;1367;-75
2023/03/25 11:12:16;;;;;;;;;;;;;;;9.52;88.04;100212.94;5053484;28;2464;-75
2023/03/25 11:14:42;;;;;;;;;;;;;;;9.66;87.21;100213.47;5048550;28;5047;-74
2023/03/25 11:17:26;;;;;;;;;;;;;;;9.42;87.55;100217.25;5062235;28;1518;-75
2023/03/25 11:19:51;;;;;;;;;;;;;;;9.44;88.91;100220.50;5062367;28;1510;-75
2023/03/25 11:22:27;;;;;;;;;;;;;;;9.42;88.27;100221.63;5060776;28;1587;-74
2023/03/25 11:24:56;;;;;;;;;;;;;;;9.37;88.90;100219.41;5055267;28;1914;-74
2023/03/25 11:27:29;;;;;;;;;;;;;;;9.43;88.81;100224.06;5051163;28;1899;-75
2023/03/25 11:30:04;;;;;;;;;;;;;;;9.49;87.50;100213.19;5054500;28;1467;-74
2023/03/25 11:32:33;;;;;;;;;;;;;;;9.46;87.58;100223.81;5060495;28;1396;-74
2023/03/25 11:35:00;;;;;;;;;;;;;;;9.44;88.06;100241.22;5060117;28;1421;-74
2023/03/25 11:37:30;;;;;;;;;;;;;;;9.45;87.59;100242.84;5056029;28;1276;-74
2023/03/25 11:40:02;;;;;;;;;;;;;;;9.46;87.39;100234.16;5054945;28;1385;-74
2023/03/25 11:42:31;;;;;;;;;;;;;;;9.47;88.32;100225.44;5060222;28;1523;-75
2023/03/25 11:44:58;;;;;;;;;;;;;;;9.71;87.14;100232.84;5052199;28;1922;-76
2023/03/25 11:47:37;;;;;;;;;;;;;;;9.92;86.84;100229.31;5057708;28;1626;-74
2023/03/25 11:50:03;;;;;;;;;;;;;;;10.01;85.55;100223.31;5062498;28;1303;-75
2023/03/25 11:52:43;;;;;;;;;;;;;;;10.10;83.95;100223.34;5058240;28;1633;-75
2023/03/25 11:55:28;;;;;;;;;;;;;;;10.18;85.07;100225.22;5067567;28;1524;-74
2023/03/25 11:57:55;;;;;;;;;;;;;;;10.29;83.12;100226.91;5052040;28;1250;-74
2023/03/25 12:00:20;;;;;;;;;;;;;;;10.27;83.25;100223.63;5052827;28;1456;-74
2023/03/25 12:02:45;;;;;;;;;;;;;;;10.33;82.07;100217.91;5057766;28;1220;-75
2023/03/25 12:05:12;;;;;;;;;;;;;;;10.36;83.16;100202.03;5054427;28;1905;-75
2023/03/25 12:07:46;;;;;;;;;;;;;;;10.46;82.62;100205.44;5051842;28;2355;-75
2023/03/25 12:10:30;;;;;;;;;;;;;;;10.72;79.74;100197.03;5051039;28;1453;-75
2023/03/25 12:13:00;;;;;;;;;;;;;;;10.77;79.27;100210.41;5052968;28;1349;-75
2023/03/25 12:15:25;;;;;;;;;;;;;;;10.79;78.54;100198.13;5056500;28;4775;-75
2023/03/25 12:17:58;;;;;;;;;;;;;;;10.87;78.34;100193.03;5054960;28;2036;-75
2023/03/25 12:20:41;;;;;;;;;;;;;;;10.99;79.43;100199.69;5047889;28;1294;-75
2023/03/25 12:23:25;;;;;;;;;;;;;;;10.94;78.72;100194.09;5048846;28;1269;-75
2023/03/25 12:26:06;;;;;;;;;;;;;;;10.91;78.99;100207.38;5050801;28;1913;-75
2023/03/25 12:28:40;;;;;;;;;;;;;;;10.81;78.82;100201.41;5050244;28;1487;-75
2023/03/25 12:31:24;;;;;;;;;;;;;;;10.71;79.55;100200.59;5050420;28;1700;-75
2023/03/25 12:34:05;;;;;;;;;;;;;;;10.54;80.58;100200.38;5050097;28;1332;-75
2023/03/25 12:36:30;;;;;;;;;;;;;;;10.39;82.75;100190.59;5055655;28;1417;-75
2023/03/25 12:38:55;;;;;;;;;;;;;;;10.34;82.52;100219.53;5049989;28;1494;-74
2023/03/25 12:41:22;;;;;;;;;;;;;;;10.27;81.91;100202.91;5056122;28;1295;-75
2023/03/25 12:44:05;;;;;;;;;;;;;;;10.16;83.53;100203.00;5059159;28;1373;-75
2023/03/25 12:46:42;;;;;;;;;;;;;;;9.93;84.74;100200.69;5055185;28;1894;-75
2023/03/25 12:49:30;;;;;;;;;;;;;;;9.90;84.45;100193.19;5058062;28;1433;-75
2023/03/25 12:52:02;;;;;;;;;;;;;;;10.03;85.21;100206.66;5062801;28;1199;-76
2023/03/25 12:54:32;;;;;;;;;;;;;;;10.38;85.09;100200.16;5053317;28;1619;-74
2023/03/25 12:57:16;;;;;;;;;;;;;;;10.50;85.24;100199.03;5055528;28;1670;-74
2023/03/25 12:59:45;;;;;;;;;;;;;;;10.59;82.97;100215.50;5059447;28;1232;-75
2023/03/25 13:02:14;;;;;;;;;;;;;;;10.47;82.81;100234.78;5056451;28;1580;-74